Weather at Nev Fish & Game Reg III Headquarters Heliport

Public forecast

Using degrees Fahrenheit for public forecast. Weather courtesy of forecast.io.

Closest aviation weather report (METAR) to Nev Fish & Game Reg III Headquarters Heliport

Closest report is North Las Vegas Metropolitan International Airport, 1.5 nm (2.7 km) NNE.

2024/05/28 13:53 (retrieved 44 minutes ago)

KVGT 281353Z 34004KT 10SM CLR 24/01 A2994 RMK AO2 SLP128 T02440011

Closest aviation forecast (TAF) to Nev Fish & Game Reg III Headquarters Heliport

Closest forecast is North Las Vegas Metropolitan International Airport, 1.5 nm (2.7 km) NNE.

2024/05/28 12:36 (retrieved 2 hours ago)

TAF KVGT 281133Z 2812/2912 VRB05KT P6SM SKC FM281800 13007KT P6SM SKC FM282100 22012G20KT P6SM FEW120 FM290300 24009KT P6SM SKC FM290900 VRB05KT P6SM SKC